sensor_id;sensor_type;location;lat;lon;timestamp;pressure;altitude;pressure_sealevel;temperature;humidity
29433;BME280;16405;53.964;13.448;2024-03-02T00:02:43;100303.03;;;4.66;100.00
29433;BME280;16405;53.964;13.448;2024-03-02T00:05:28;100300.28;;;4.70;100.00
29433;BME280;16405;53.964;13.448;2024-03-02T00:08:06;100304.53;;;4.75;100.00
29433;BME280;16405;53.964;13.448;2024-03-02T00:10:44;100297.44;;;4.80;100.00
29433;BME280;16405;53.964;13.448;2024-03-02T00:13:11;100293.88;;;4.82;100.00
29433;BME280;16405;53.964;13.448;2024-03-02T00:16:07;100297.19;;;4.87;100.00
29433;BME280;16405;53.964;13.448;2024-03-02T00:18:40;100298.84;;;4.90;100.00
29433;BME280;16405;53.964;13.448;2024-03-02T00:21:09;100298.16;;;4.85;100.00
29433;BME280;16405;53.964;13.448;2024-03-02T00:23:36;100301.56;;;4.87;100.00
29433;BME280;16405;53.964;13.448;2024-03-02T00:26:12;100303.50;;;4.80;100.00
29433;BME280;16405;53.964;13.448;2024-03-02T00:28:40;100302.91;;;4.70;100.00
29433;BME280;16405;53.964;13.448;2024-03-02T00:31:16;100298.78;;;4.63;100.00
29433;BME280;16405;53.964;13.448;2024-03-02T00:33:55;100304.09;;;4.60;100.00
29433;BME280;16405;53.964;13.448;2024-03-02T00:36:41;100300.66;;;4.58;100.00
29433;BME280;16405;53.964;13.448;2024-03-02T00:39:28;100314.59;;;4.57;100.00
29433;BME280;16405;53.964;13.448;2024-03-02T00:41:58;100301.56;;;4.57;100.00
29433;BME280;16405;53.964;13.448;2024-03-02T00:44:25;100302.34;;;4.61;100.00
29433;BME280;16405;53.964;13.448;2024-03-02T00:47:03;100300.56;;;4.61;100.00
29433;BME280;16405;53.964;13.448;2024-03-02T00:49:39;100299.63;;;4.64;100.00
29433;BME280;16405;53.964;13.448;2024-03-02T00:52:06;100292.66;;;4.64;100.00
29433;BME280;16405;53.964;13.448;2024-03-02T00:54:33;100298.66;;;4.66;100.00
29433;BME280;16405;53.964;13.448;2024-03-02T00:57:11;100294.28;;;4.68;100.00
29433;BME280;16405;53.964;13.448;2024-03-02T00:59:37;100283.00;;;4.68;100.00
29433;BME280;16405;53.964;13.448;2024-03-02T01:02:13;100275.19;;;4.66;100.00
29433;BME280;16405;53.964;13.448;2024-03-02T01:04:39;100278.91;;;4.59;100.00
29433;BME280;16405;53.964;13.448;2024-03-02T01:07:05;100273.84;;;4.53;100.00
29433;BME280;16405;53.964;13.448;2024-03-02T01:09:51;100271.34;;;4.50;100.00
29433;BME280;16405;53.964;13.448;2024-03-02T01:12:23;100270.56;;;4.46;100.00
29433;BME280;16405;53.964;13.448;2024-03-02T01:15:14;100265.41;;;4.45;100.00
29433;BME280;16405;53.964;13.448;2024-03-02T01:17:40;100261.06;;;4.45;100.00
29433;BME280;16405;53.964;13.448;2024-03-02T01:20:08;100267.13;;;4.46;100.00
29433;BME280;16405;53.964;13.448;2024-03-02T01:22:44;100267.94;;;4.48;100.00
29433;BME280;16405;53.964;13.448;2024-03-02T01:25:10;100267.00;;;4.49;100.00
29433;BME280;16405;53.964;13.448;2024-03-02T01:27:47;100272.97;;;4.54;100.00
29433;BME280;16405;53.964;13.448;2024-03-02T01:30:13;100265.16;;;4.54;100.00
29433;BME280;16405;53.964;13.448;2024-03-02T01:32:39;100257.22;;;4.57;100.00
29433;BME280;16405;53.964;13.448;2024-03-02T01:35:12;100261.41;;;4.63;100.00
29433;BME280;16405;53.964;13.448;2024-03-02T01:37:42;100255.22;;;4.67;100.00
29433;BME280;16405;53.964;13.448;2024-03-02T01:40:09;100252.47;;;4.71;100.00
29433;BME280;16405;53.964;13.448;2024-03-02T01:42:41;100258.38;;;4.77;100.00
29433;BME280;16405;53.964;13.448;2024-03-02T01:45:09;100248.69;;;4.82;100.00
29433;BME280;16405;53.964;13.448;2024-03-02T01:47:47;100249.38;;;4.87;100.00
29433;BME280;16405;53.964;13.448;2024-03-02T01:50:13;100247.56;;;4.90;100.00
29433;BME280;16405;53.964;13.448;2024-03-02T01:52:40;100254.34;;;4.94;100.00
29433;BME280;16405;53.964;13.448;2024-03-02T01:55:28;100249.91;;;4.98;100.00
29433;BME280;16405;53.964;13.448;2024-03-02T01:57:56;100246.31;;;5.02;100.00
29433;BME280;16405;53.964;13.448;2024-03-02T02:00:25;100246.13;;;5.08;100.00
29433;BME280;16405;53.964;13.448;2024-03-02T02:02:58;100237.19;;;5.16;100.00
29433;BME280;16405;53.964;13.448;2024-03-02T02:05:27;100243.06;;;5.22;100.00
29433;BME280;16405;53.964;13.448;2024-03-02T02:07:53;100240.34;;;5.25;100.00
29433;BME280;16405;53.964;13.448;2024-03-02T02:10:26;100244.50;;;5.31;100.00
29433;BME280;16405;53.964;13.448;2024-03-02T02:12:55;100235.69;;;5.35;100.00
29433;BME280;16405;53.964;13.448;2024-03-02T02:15:29;100233.88;;;5.37;100.00
29433;BME280;16405;53.964;13.448;2024-03-02T02:17:56;100231.19;;;5.40;100.00
29433;BME280;16405;53.964;13.448;2024-03-02T02:20:25;100227.56;;;5.44;100.00
29433;BME280;16405;53.964;13.448;2024-03-02T02:23:33;100237.78;;;5.50;100.00
29433;BME280;16405;53.964;13.448;2024-03-02T02:26:12;100225.63;;;5.49;100.00
29433;BME280;16405;53.964;13.448;2024-03-02T02:28:38;100231.53;;;5.54;100.00
29433;BME280;16405;53.964;13.448;2024-03-02T02:31:04;100220.13;;;5.57;100.00
29433;BME280;16405;53.964;13.448;2024-03-02T02:33:53;100229.50;;;5.64;100.00
29433;BME280;16405;53.964;13.448;2024-03-02T02:36:23;100223.31;;;5.67;100.00
29433;BME280;16405;53.964;13.448;2024-03-02T02:38:49;100220.53;;;5.71;100.00
29433;BME280;16405;53.964;13.448;2024-03-02T02:41:27;100215.94;;;5.78;100.00
29433;BME280;16405;53.964;13.448;2024-03-02T02:43:53;100208.09;;;5.78;100.00
29433;BME280;16405;53.964;13.448;2024-03-02T02:46:28;100212.22;;;5.85;100.00
29433;BME280;16405;53.964;13.448;2024-03-02T02:48:56;100219.03;;;5.89;100.00
29433;BME280;16405;53.964;13.448;2024-03-02T02:51:45;100213.72;;;5.92;100.00
29433;BME280;16405;53.964;13.448;2024-03-02T02:54:16;100209.38;;;5.91;100.00
29433;BME280;16405;53.964;13.448;2024-03-02T02:56:48;100214.47;;;5.96;100.00
29433;BME280;16405;53.964;13.448;2024-03-02T02:59:16;100222.22;;;5.99;100.00
29433;BME280;16405;53.964;13.448;2024-03-02T03:01:45;100216.94;;;6.01;100.00
29433;BME280;16405;53.964;13.448;2024-03-02T03:04:19;100217.66;;;6.04;100.00
29433;BME280;16405;53.964;13.448;2024-03-02T03:06:45;100210.69;;;6.05;100.00
29433;BME280;16405;53.964;13.448;2024-03-02T03:09:37;100214.88;;;6.09;100.00
29433;BME280;16405;53.964;13.448;2024-03-02T03:12:07;100212.16;;;6.12;100.00
29433;BME280;16405;53.964;13.448;2024-03-02T03:14:33;100208.59;;;6.14;100.00
29433;BME280;16405;53.964;13.448;2024-03-02T03:17:07;100208.47;;;6.18;100.00
29433;BME280;16405;53.964;13.448;2024-03-02T03:19:46;100203.13;;;6.21;100.00
29433;BME280;16405;53.964;13.448;2024-03-02T03:22:15;100207.41;;;6.23;100.00
29433;BME280;16405;53.964;13.448;2024-03-02T03:24:50;100211.72;;;6.24;100.00
29433;BME280;16405;53.964;13.448;2024-03-02T03:27:19;100212.50;;;6.26;100.00
29433;BME280;16405;53.964;13.448;2024-03-02T03:29:56;100206.41;;;6.26;100.00
29433;BME280;16405;53.964;13.448;2024-03-02T03:32:22;100207.22;;;6.28;100.00
29433;BME280;16405;53.964;13.448;2024-03-02T03:34:49;100214.09;;;6.30;100.00
29433;BME280;16405;53.964;13.448;2024-03-02T03:37:27;100207.97;;;6.31;100.00
29433;BME280;16405;53.964;13.448;2024-03-02T03:40:02;100218.31;;;6.34;100.00
29433;BME280;16405;53.964;13.448;2024-03-02T03:42:58;100224.31;;;6.36;100.00
29433;BME280;16405;53.964;13.448;2024-03-02T03:45:25;100216.47;;;6.36;100.00
29433;BME280;16405;53.964;13.448;2024-03-02T03:48:02;100213.81;;;6.38;100.00
29433;BME280;16405;53.964;13.448;2024-03-02T03:50:43;100214.44;;;6.45;100.00
29433;BME280;16405;53.964;13.448;2024-03-02T03:53:09;100211.59;;;6.51;100.00
29433;BME280;16405;53.964;13.448;2024-03-02T03:55:35;100218.28;;;6.58;100.00
29433;BME280;16405;53.964;13.448;2024-03-02T03:58:01;100212.78;;;6.66;100.00
29433;BME280;16405;53.964;13.448;2024-03-02T04:00:36;100208.94;;;6.74;100.00
29433;BME280;16405;53.964;13.448;2024-03-02T04:03:03;100196.47;;;6.81;100.00
29433;BME280;16405;53.964;13.448;2024-03-02T04:05:29;100185.81;;;6.86;100.00
29433;BME280;16405;53.964;13.448;2024-03-02T04:08:03;100196.91;;;6.92;100.00
29433;BME280;16405;53.964;13.448;2024-03-02T04:10:32;100193.25;;;6.96;100.00
29433;BME280;16405;53.964;13.448;2024-03-02T04:13:08;100197.50;;;6.99;100.00
29433;BME280;16405;53.964;13.448;2024-03-02T04:15:36;100205.25;;;7.02;100.00
29433;BME280;16405;53.964;13.448;2024-03-02T04:18:09;100210.22;;;7.08;100.00
29433;BME280;16405;53.964;13.448;2024-03-02T04:20:39;100203.09;;;7.12;100.00
29433;BME280;16405;53.964;13.448;2024-03-02T04:23:12;100201.13;;;7.17;100.00
29433;BME280;16405;53.964;13.448;2024-03-02T04:25:54;100201.88;;;7.21;100.00
29433;BME280;16405;53.964;13.448;2024-03-02T04:28:32;100200.88;;;7.23;100.00
29433;BME280;16405;53.964;13.448;2024-03-02T04:30:58;100203.44;;;7.25;100.00
29433;BME280;16405;53.964;13.448;2024-03-02T04:33:24;100209.41;;;7.28;100.00
29433;BME280;16405;53.964;13.448;2024-03-02T04:36:00;100204.97;;;7.30;100.00
29433;BME280;16405;53.964;13.448;2024-03-02T04:38:26;100209.16;;;7.34;100.00
29433;BME280;16405;53.964;13.448;2024-03-02T04:41:06;100202.94;;;7.37;100.00
29433;BME280;16405;53.964;13.448;2024-03-02T04:43:35;100208.03;;;7.40;100.00
29433;BME280;16405;53.964;13.448;2024-03-02T04:46:08;100200.88;;;7.45;100.00
29433;BME280;16405;53.964;13.448;2024-03-02T04:48:37;100199.94;;;7.46;100.00
29433;BME280;16405;53.964;13.448;2024-03-02T04:51:05;100199.78;;;7.49;100.00
29433;BME280;16405;53.964;13.448;2024-03-02T04:53:38;100209.31;;;7.52;100.00
29433;BME280;16405;53.964;13.448;2024-03-02T04:56:07;100208.31;;;7.54;100.00
29433;BME280;16405;53.964;13.448;2024-03-02T04:59:20;100204.78;;;7.55;100.00
29433;BME280;16405;53.964;13.448;2024-03-02T05:01:55;100202.94;;;7.57;100.00
29433;BME280;16405;53.964;13.448;2024-03-02T05:04:23;100207.19;;;7.60;100.00
29433;BME280;16405;53.964;13.448;2024-03-02T05:07:11;100202.69;;;7.64;100.00
29433;BME280;16405;53.964;13.448;2024-03-02T05:09:45;100209.66;;;7.65;100.00
29433;BME280;16405;53.964;13.448;2024-03-02T05:12:20;100210.44;;;7.67;100.00
29433;BME280;16405;53.964;13.448;2024-03-02T05:15:28;100215.47;;;7.71;100.00
29433;BME280;16405;53.964;13.448;2024-03-02T05:17:56;100212.06;;;7.69;100.00
29433;BME280;16405;53.964;13.448;2024-03-02T05:20:23;100223.34;;;7.71;100.00
29433;BME280;16405;53.964;13.448;2024-03-02T05:22:49;100214.69;;;7.69;100.00
29433;BME280;16405;53.964;13.448;2024-03-02T05:25:26;100211.97;;;7.71;100.00
29433;BME280;16405;53.964;13.448;2024-03-02T05:27:52;100212.72;;;7.74;100.00
29433;BME280;16405;53.964;13.448;2024-03-02T05:30:26;100208.25;;;7.76;100.00
29433;BME280;16405;53.964;13.448;2024-03-02T05:32:52;100206.41;;;7.78;100.00
29433;BME280;16405;53.964;13.448;2024-03-02T05:35:18;100211.59;;;7.80;100.00
29433;BME280;16405;53.964;13.448;2024-03-02T05:37:53;100209.03;;;7.78;100.00
29433;BME280;16405;53.964;13.448;2024-03-02T05:40:22;100216.84;;;7.80;100.00
29433;BME280;16405;53.964;13.448;2024-03-02T05:42:47;100217.63;;;7.82;100.00
29433;BME280;16405;53.964;13.448;2024-03-02T05:45:13;100210.56;;;7.84;100.00
29433;BME280;16405;53.964;13.448;2024-03-02T05:47:48;100220.84;;;7.89;100.00
29433;BME280;16405;53.964;13.448;2024-03-02T05:50:15;100214.66;;;7.90;100.00
29433;BME280;16405;53.964;13.448;2024-03-02T05:52:40;100212.00;;;7.91;100.00
29433;BME280;16405;53.964;13.448;2024-03-02T05:55:15;100213.63;;;7.94;100.00
29433;BME280;16405;53.964;13.448;2024-03-02T05:57:45;100213.63;;;7.94;100.00
29433;BME280;16405;53.964;13.448;2024-03-02T06:00:24;100216.19;;;7.95;100.00
29433;BME280;16405;53.964;13.448;2024-03-02T06:03:16;100218.00;;;7.93;100.00
29433;BME280;16405;53.964;13.448;2024-03-02T06:05:42;100214.41;;;7.96;100.00
29433;BME280;16405;53.964;13.448;2024-03-02T06:08:08;100217.88;;;7.96;100.00
29433;BME280;16405;53.964;13.448;2024-03-02T06:10:48;100218.59;;;8.00;100.00
29433;BME280;16405;53.964;13.448;2024-03-02T06:13:24;100222.84;;;8.02;100.00
29433;BME280;16405;53.964;13.448;2024-03-02T06:15:52;100221.16;;;8.01;100.00
29433;BME280;16405;53.964;13.448;2024-03-02T06:18:26;100225.34;;;8.06;100.00
29433;BME280;16405;53.964;13.448;2024-03-02T06:21:06;100217.59;;;8.02;100.00
29433;BME280;16405;53.964;13.448;2024-03-02T06:26:27;100236.47;;;8.11;100.00
29433;BME280;16405;53.964;13.448;2024-03-02T06:28:57;100233.91;;;8.09;100.00
29433;BME280;16405;53.964;13.448;2024-03-02T06:31:29;100235.53;;;8.12;100.00
29433;BME280;16405;53.964;13.448;2024-03-02T06:33:58;100241.56;;;8.14;100.00
29433;BME280;16405;53.964;13.448;2024-03-02T06:39:00;100233.66;;;8.15;100.00
29433;BME280;16405;53.964;13.448;2024-03-02T06:41:26;100240.53;;;8.18;100.00
29433;BME280;16405;53.964;13.448;2024-03-02T06:43:52;100240.53;;;8.18;100.00
29433;BME280;16405;53.964;13.448;2024-03-02T06:46:25;100233.59;;;8.17;100.00
29433;BME280;16405;53.964;13.448;2024-03-02T06:48:56;100237.78;;;8.21;100.00
29433;BME280;16405;53.964;13.448;2024-03-02T06:51:33;100238.56;;;8.23;100.00
29433;BME280;16405;53.964;13.448;2024-03-02T06:54:01;100233.22;;;8.25;100.00
29433;BME280;16405;53.964;13.448;2024-03-02T06:56:37;100244.44;;;8.28;100.00
29433;BME280;16405;53.964;13.448;2024-03-02T06:59:15;100240.88;;;8.29;100.00
29433;BME280;16405;53.964;13.448;2024-03-02T07:01:41;100247.84;;;8.30;100.00
29433;BME280;16405;53.964;13.448;2024-03-02T07:04:09;100247.84;;;8.30;100.00
29433;BME280;16405;53.964;13.448;2024-03-02T07:07:03;100255.50;;;8.35;100.00
29433;BME280;16405;53.964;13.448;2024-03-02T07:09:38;100247.69;;;8.33;100.00
29433;BME280;16405;53.964;13.448;2024-03-02T07:12:07;100250.22;;;8.36;100.00
29433;BME280;16405;53.964;13.448;2024-03-02T07:14:39;100253.66;;;8.37;100.00
29433;BME280;16405;53.964;13.448;2024-03-02T07:17:29;100248.28;;;8.40;100.00
29433;BME280;16405;53.964;13.448;2024-03-02T07:20:03;100252.00;;;8.36;100.00
29433;BME280;16405;53.964;13.448;2024-03-02T07:22:30;100245.88;;;8.35;100.00
29433;BME280;16405;53.964;13.448;2024-03-02T07:24:56;100245.75;;;8.38;100.00
29433;BME280;16405;53.964;13.448;2024-03-02T07:27:31;100243.00;;;8.41;100.00
29433;BME280;16405;53.964;13.448;2024-03-02T07:29:57;100252.59;;;8.43;100.00
29433;BME280;16405;53.964;13.448;2024-03-02T07:35:17;100253.38;;;8.45;100.00
29433;BME280;16405;53.964;13.448;2024-03-02T07:37:44;100259.53;;;8.44;100.00
29433;BME280;16405;53.964;13.448;2024-03-02T07:40:17;100260.47;;;8.43;100.00
29433;BME280;16405;53.964;13.448;2024-03-02T07:42:43;100261.31;;;8.43;100.00
29433;BME280;16405;53.964;13.448;2024-03-02T07:45:13;100272.59;;;8.45;100.00
29433;BME280;16405;53.964;13.448;2024-03-02T07:47:47;100265.63;;;8.44;100.00
29433;BME280;16405;53.964;13.448;2024-03-02T07:50:13;100276.13;;;8.44;100.00
29433;BME280;16405;53.964;13.448;2024-03-02T07:52:51;100260.38;;;8.44;100.00
29433;BME280;16405;53.964;13.448;2024-03-02T07:55:17;100270.97;;;8.43;100.00
29433;BME280;16405;53.964;13.448;2024-03-02T07:57:45;100277.88;;;8.44;100.00
29433;BME280;16405;53.964;13.448;2024-03-02T08:00:20;100282.94;;;8.48;100.00
29433;BME280;16405;53.964;13.448;2024-03-02T08:02:46;100282.22;;;8.45;100.00
29433;BME280;16405;53.964;13.448;2024-03-02T08:05:13;100280.50;;;8.44;100.00
29433;BME280;16405;53.964;13.448;2024-03-02T08:07:46;100283.28;;;8.40;100.00
29433;BME280;16405;53.964;13.448;2024-03-02T08:10:15;100298.09;;;8.41;100.00
29433;BME280;16405;53.964;13.448;2024-03-02T08:12:48;100290.41;;;8.37;100.00
29433;BME280;16405;53.964;13.448;2024-03-02T08:15:15;100281.03;;;8.31;100.00
29433;BME280;16405;53.964;13.448;2024-03-02T08:17:41;100295.00;;;8.32;100.00
29433;BME280;16405;53.964;13.448;2024-03-02T08:20:39;100292.44;;;8.30;100.00
29433;BME280;16405;53.964;13.448;2024-03-02T08:23:15;100286.22;;;8.33;100.00
29433;BME280;16405;53.964;13.448;2024-03-02T08:26:01;100288.84;;;8.33;100.00
29433;BME280;16405;53.964;13.448;2024-03-02T08:28:35;100290.47;;;8.35;100.00
29433;BME280;16405;53.964;13.448;2024-03-02T08:31:12;100292.97;;;8.38;100.00
29433;BME280;16405;53.964;13.448;2024-03-02T08:33:41;100297.34;;;8.38;100.00
29433;BME280;16405;53.964;13.448;2024-03-02T08:36:08;100293.97;;;8.36;100.00
29433;BME280;16405;53.964;13.448;2024-03-02T08:38:59;100307.75;;;8.41;100.00
29433;BME280;16405;53.964;13.448;2024-03-02T08:41:28;100311.34;;;8.38;100.00
29433;BME280;16405;53.964;13.448;2024-03-02T08:44:20;100298.31;;;8.35;100.00
29433;BME280;16405;53.964;13.448;2024-03-02T08:48:09;100312.31;;;8.36;100.00
29433;BME280;16405;53.964;13.448;2024-03-02T08:50:48;100312.19;;;8.39;100.00
29433;BME280;16405;53.964;13.448;2024-03-02T08:53:41;100310.00;;;8.49;100.00
29433;BME280;16405;53.964;13.448;2024-03-02T08:56:08;100323.06;;;8.50;100.00
29433;BME280;16405;53.964;13.448;2024-03-02T09:01:29;100314.22;;;8.53;100.00
29433;BME280;16405;53.964;13.448;2024-03-02T09:07:15;100321.97;;;8.56;100.00
29433;BME280;16405;53.964;13.448;2024-03-02T09:10:10;100318.28;;;8.60;100.00
29433;BME280;16405;53.964;13.448;2024-03-02T09:12:39;100325.94;;;8.65;100.00
29433;BME280;16405;53.964;13.448;2024-03-02T09:15:16;100331.88;;;8.68;100.00
29433;BME280;16405;53.964;13.448;2024-03-02T09:18:01;100335.22;;;8.72;100.00
29433;BME280;16405;53.964;13.448;2024-03-02T09:20:49;100334.38;;;8.71;100.00
29433;BME280;16405;53.964;13.448;2024-03-02T09:23:18;100340.44;;;8.73;100.00
29433;BME280;16405;53.964;13.448;2024-03-02T09:25:56;100337.75;;;8.75;100.00
29433;BME280;16405;53.964;13.448;2024-03-02T09:31:47;100337.53;;;8.79;100.00
29433;BME280;16405;53.964;13.448;2024-03-02T09:43:47;100342.28;;;8.90;100.00
29433;BME280;16405;53.964;13.448;2024-03-02T09:46:39;100347.38;;;8.93;100.00
29433;BME280;16405;53.964;13.448;2024-03-02T09:49:06;100347.25;;;8.96;100.00
29433;BME280;16405;53.964;13.448;2024-03-02T09:51:47;100347.13;;;8.99;100.00
29433;BME280;16405;53.964;13.448;2024-03-02T09:57:08;100348.41;;;9.10;100.00
29433;BME280;16405;53.964;13.448;2024-03-02T10:00:09;100343.84;;;9.13;100.00
29433;BME280;16405;53.964;13.448;2024-03-02T10:02:48;100346.41;;;9.15;100.00
29433;BME280;16405;53.964;13.448;2024-03-02T10:09:11;100348.59;;;9.24;100.00
29433;BME280;16405;53.964;13.448;2024-03-02T10:11:48;100348.47;;;9.27;100.00
29433;BME280;16405;53.964;13.448;2024-03-02T10:14:40;100351.00;;;9.29;100.00
29433;BME280;16405;53.964;13.448;2024-03-02T10:17:20;100350.09;;;9.30;100.00
29433;BME280;16405;53.964;13.448;2024-03-02T10:19:50;100355.19;;;9.33;100.00
29433;BME280;16405;53.964;13.448;2024-03-02T10:22:39;100357.63;;;9.37;100.00
29433;BME280;16405;53.964;13.448;2024-03-02T10:25:38;100351.47;;;9.37;100.00
29433;BME280;16405;53.964;13.448;2024-03-02T10:41:09;100357.41;;;9.42;100.00
29433;BME280;16405;53.964;13.448;2024-03-02T10:43:48;100363.72;;;9.38;100.00
29433;BME280;16405;53.964;13.448;2024-03-02T10:46:32;100361.16;;;9.36;100.00
29433;BME280;16405;53.964;13.448;2024-03-02T10:50:13;100358.59;;;9.35;100.00
29433;BME280;16405;53.964;13.448;2024-03-02T10:53:29;100359.25;;;9.40;100.00
29433;BME280;16405;53.964;13.448;2024-03-02T10:56:49;100346.88;;;9.42;100.00
29433;BME280;16405;53.964;13.448;2024-03-02T10:59:43;100351.06;;;9.46;100.00
29433;BME280;16405;53.964;13.448;2024-03-02T11:06:09;100349.41;;;9.43;100.00
29433;BME280;16405;53.964;13.448;2024-03-02T11:09:41;100357.41;;;9.42;100.00
29433;BME280;16405;53.964;13.448;2024-03-02T11:15:19;100344.16;;;9.43;100.00
29433;BME280;16405;53.964;13.448;2024-03-02T11:17:59;100344.66;;;9.52;100.00
29433;BME280;16405;53.964;13.448;2024-03-02T11:20:41;100342.72;;;9.55;100.00
29433;BME280;16405;53.964;13.448;2024-03-02T11:23:50;100348.78;;;9.57;100.00
29433;BME280;16405;53.964;13.448;2024-03-02T11:26:47;100354.50;;;9.65;100.00
29433;BME280;16405;53.964;13.448;2024-03-02T11:35:48;100359.41;;;9.91;100.00
29433;BME280;16405;53.964;13.448;2024-03-02T11:38:31;100366.06;;;9.98;100.00
29433;BME280;16405;53.964;13.448;2024-03-02T11:41:29;100365.69;;;10.05;100.00
29433;BME280;16405;53.964;13.448;2024-03-02T11:51:11;100364.06;;;10.20;100.00
29433;BME280;16405;53.964;13.448;2024-03-02T12:04:38;100377.16;;;10.39;100.00
29433;BME280;16405;53.964;13.448;2024-03-02T12:11:17;100381.78;;;10.52;100.00
29433;BME280;16405;53.964;13.448;2024-03-02T12:14:08;100382.22;;;10.60;100.00
29433;BME280;16405;53.964;13.448;2024-03-02T12:16:41;100376.91;;;10.61;100.00
29433;BME280;16405;53.964;13.448;2024-03-02T12:23:11;100383.19;;;10.59;100.00
29433;BME280;16405;53.964;13.448;2024-03-02T12:25:40;100384.09;;;10.58;100.00
29433;BME280;16405;53.964;13.448;2024-03-02T12:31:21;100383.25;;;10.57;100.00
29433;BME280;16405;53.964;13.448;2024-03-02T12:34:09;100387.25;;;10.64;100.00
29433;BME280;16405;53.964;13.448;2024-03-02T12:36:39;100385.06;;;10.73;100.00
29433;BME280;16405;53.964;13.448;2024-03-02T12:42:59;100395.88;;;10.84;100.00
29433;BME280;16405;53.964;13.448;2024-03-02T12:45:38;100393.19;;;10.85;100.00
29433;BME280;16405;53.964;13.448;2024-03-02T12:48:09;100382.50;;;10.88;100.00
29433;BME280;16405;53.964;13.448;2024-03-02T12:51:18;100383.16;;;10.92;100.00
29433;BME280;16405;53.964;13.448;2024-03-02T12:53:58;100379.69;;;10.92;100.00
29433;BME280;16405;53.964;13.448;2024-03-02T12:56:47;100382.16;;;10.95;100.00
29433;BME280;16405;53.964;13.448;2024-03-02T12:59:30;100367.03;;;10.98;100.00
29433;BME280;16405;53.964;13.448;2024-03-02T13:01:59;100372.66;;;11.08;100.00
29433;BME280;16405;53.964;13.448;2024-03-02T13:05:22;100373.59;;;11.23;100.00
29433;BME280;16405;53.964;13.448;2024-03-02T13:08:19;100386.78;;;11.39;100.00
29433;BME280;16405;53.964;13.448;2024-03-02T13:10:57;100393.09;;;11.52;100.00
29433;BME280;16405;53.964;13.448;2024-03-02T13:14:00;100385.59;;;11.60;100.00
29433;BME280;16405;53.964;13.448;2024-03-02T13:16:48;100389.25;;;11.58;100.00
29433;BME280;16405;53.964;13.448;2024-03-02T13:19:18;100399.63;;;11.61;100.00
29433;BME280;16405;53.964;13.448;2024-03-02T13:22:01;100394.44;;;11.59;100.00
29433;BME280;16405;53.964;13.448;2024-03-02T13:24:39;100385.59;;;11.60;100.00
29433;BME280;16405;53.964;13.448;2024-03-02T13:27:28;100389.84;;;11.63;100.00
29433;BME280;16405;53.964;13.448;2024-03-02T13:30:11;100391.38;;;11.67;100.00
29433;BME280;16405;53.964;13.448;2024-03-02T13:32:39;100391.38;;;11.67;100.00
29433;BME280;16405;53.964;13.448;2024-03-02T13:35:18;100395.13;;;11.63;100.00
29433;BME280;16405;53.964;13.448;2024-03-02T13:37:58;100391.72;;;11.61;100.00
29433;BME280;16405;53.964;13.448;2024-03-02T13:41:11;100395.38;;;11.58;100.00
29433;BME280;16405;53.964;13.448;2024-03-02T13:43:49;100390.19;;;11.57;100.00
29433;BME280;16405;53.964;13.448;2024-03-02T13:49:11;100400.47;;;11.61;100.00
29433;BME280;16405;53.964;13.448;2024-03-02T13:52:08;100396.16;;;11.60;100.00
29433;BME280;16405;53.964;13.448;2024-03-02T13:55:01;100399.56;;;11.62;100.00
29433;BME280;16405;53.964;13.448;2024-03-02T14:00:38;100401.75;;;11.54;98.27
29433;BME280;16405;53.964;13.448;2024-03-02T14:03:51;100405.56;;;11.48;97.39
29433;BME280;16405;53.964;13.448;2024-03-02T14:06:40;100407.56;;;11.45;97.80
29433;BME280;16405;53.964;13.448;2024-03-02T14:09:09;100403.28;;;11.42;98.21
29433;BME280;16405;53.964;13.448;2024-03-02T14:11:59;100397.59;;;11.34;98.04
29433;BME280;16405;53.964;13.448;2024-03-02T14:14:49;100406.69;;;11.28;98.14
29433;BME280;16405;53.964;13.448;2024-03-02T14:17:38;100402.44;;;11.26;99.04
29433;BME280;16405;53.964;13.448;2024-03-02T14:23:21;100408.53;;;11.11;98.67
29433;BME280;16405;53.964;13.448;2024-03-02T14:25:59;100413.28;;;11.04;99.13
29433;BME280;16405;53.964;13.448;2024-03-02T14:28:48;100402.13;;;10.99;98.77
29433;BME280;16405;53.964;13.448;2024-03-02T14:31:19;100407.91;;;10.90;99.01
29433;BME280;16405;53.964;13.448;2024-03-02T14:34:00;100417.66;;;10.87;99.89
29433;BME280;16405;53.964;13.448;2024-03-02T14:36:38;100408.13;;;10.85;100.00
29433;BME280;16405;53.964;13.448;2024-03-02T14:39:30;100410.59;;;10.88;100.00
29433;BME280;16405;53.964;13.448;2024-03-02T14:42:40;100406.03;;;10.92;100.00
29433;BME280;16405;53.964;13.448;2024-03-02T14:45:10;100408.34;;;10.98;100.00
29433;BME280;16405;53.964;13.448;2024-03-02T14:50:42;100407.50;;;11.13;100.00
29433;BME280;16405;53.964;13.448;2024-03-02T14:53:08;100396.66;;;11.19;100.00
29433;BME280;16405;53.964;13.448;2024-03-02T14:56:02;100398.00;;;11.26;100.00
29433;BME280;16405;53.964;13.448;2024-03-02T14:58:48;100401.47;;;11.27;99.03
29433;BME280;16405;53.964;13.448;2024-03-02T15:02:14;100400.56;;;11.28;98.76
29433;BME280;16405;53.964;13.448;2024-03-02T15:04:49;100398.84;;;11.27;97.90
29433;BME280;16405;53.964;13.448;2024-03-02T15:07:19;100400.56;;;11.28;97.12
29433;BME280;16405;53.964;13.448;2024-03-02T15:10:08;100396.91;;;11.31;98.15
29433;BME280;16405;53.964;13.448;2024-03-02T15:13:20;100400.56;;;11.28;97.30
29433;BME280;16405;53.964;13.448;2024-03-02T15:15:53;100399.72;;;11.27;97.57